Time;durP1;ratioP1;P1;durP2;ratioP2;P2;SDS_P1;SDS_P2;PMS_P1;PMS_P2;Temp;Humidity;BMP_temperature;BMP_pressure;BME280_temperature;BME280_humidity;BME280_pressure;Samples;Min_cycle;Max_cycle;Signal;HPM_P1;HPM_P2
2021/09/04 00:01:50;;;;;;;26.10;17.03;;;;;;;;;;5033262;28;20479;-51
2021/09/04 00:04:16;;;;;;;23.53;14.90;;;;;;;;;;5033000;28;20378;-51
2021/09/04 00:06:42;;;;;;;24.70;14.90;;;;;;;;;;5033125;28;20407;-51
2021/09/04 00:09:08;;;;;;;23.40;14.53;;;;;;;;;;5032981;28;20413;-50
2021/09/04 00:11:34;;;;;;;29.53;17.47;;;;;;;;;;5032796;28;20464;-50
2021/09/04 00:14:00;;;;;;;31.07;16.43;;;;;;;;;;5032798;28;20382;-51
2021/09/04 00:16:26;;;;;;;22.43;15.37;;;;;;;;;;5032868;28;20929;-50
2021/09/04 00:18:52;;;;;;;25.00;15.50;;;;;;;;;;5032863;28;20406;-50
2021/09/04 00:21:18;;;;;;;24.13;16.80;;;;;;;;;;5032800;28;20947;-49
2021/09/04 00:23:44;;;;;;;21.43;15.57;;;;;;;;;;5032462;28;20804;-48
2021/09/04 00:26:10;;;;;;;25.03;15.90;;;;;;;;;;5032755;28;20435;-50
2021/09/04 00:28:36;;;;;;;27.07;16.23;;;;;;;;;;5032718;28;20416;-50
2021/09/04 00:31:02;;;;;;;31.77;17.13;;;;;;;;;;5032569;28;20845;-51
2021/09/04 00:33:28;;;;;;;25.03;16.80;;;;;;;;;;5032419;28;20386;-51
2021/09/04 00:35:54;;;;;;;25.97;16.30;;;;;;;;;;5032494;28;20420;-50
2021/09/04 00:38:20;;;;;;;26.50;16.50;;;;;;;;;;5032546;28;20422;-51
2021/09/04 00:40:46;;;;;;;25.33;15.90;;;;;;;;;;5032213;28;20409;-50
2021/09/04 00:43:12;;;;;;;21.13;14.63;;;;;;;;;;5032258;28;20587;-50
2021/09/04 00:45:38;;;;;;;29.10;17.10;;;;;;;;;;5032423;28;20751;-49
2021/09/04 00:48:05;;;;;;;26.97;15.87;;;;;;;;;;5032344;28;20417;-50
2021/09/04 00:50:32;;;;;;;25.90;17.00;;;;;;;;;;5032252;28;20401;-50
2021/09/04 00:52:58;;;;;;;25.67;16.80;;;;;;;;;;5032022;28;20445;-48
2021/09/04 00:55:25;;;;;;;25.83;16.50;;;;;;;;;;5032081;28;20377;-48
2021/09/04 00:57:51;;;;;;;32.30;18.00;;;;;;;;;;5032164;28;20541;-50
2021/09/04 01:00:18;;;;;;;28.03;17.37;;;;;;;;;;5032092;28;20422;-50
2021/09/04 01:02:44;;;;;;;27.17;16.90;;;;;;;;;;5031243;28;20894;-50
2021/09/04 01:05:10;;;;;;;29.90;15.50;;;;;;;;;;5030997;28;20381;-50
2021/09/04 01:07:38;;;;;;;22.83;14.87;;;;;;;;;;5031845;28;20429;-50
2021/09/04 01:10:05;;;;;;;27.20;16.83;;;;;;;;;;5031692;28;20428;-50
2021/09/04 01:12:31;;;;;;;26.03;16.33;;;;;;;;;;5031907;28;20496;-50
2021/09/04 01:14:58;;;;;;;26.03;17.23;;;;;;;;;;5031829;28;20409;-49
2021/09/04 01:17:24;;;;;;;32.97;18.43;;;;;;;;;;5031888;28;20970;-48
2021/09/04 01:19:50;;;;;;;28.90;18.93;;;;;;;;;;5031820;28;20520;-50
2021/09/04 01:22:16;;;;;;;29.57;18.47;;;;;;;;;;5031735;28;20432;-49
2021/09/04 01:24:46;;;;;;;32.33;17.53;;;;;;;;;;5031625;28;20378;-49
2021/09/04 01:27:12;;;;;;;34.17;18.83;;;;;;;;;;5031840;28;20373;-50
2021/09/04 01:29:38;;;;;;;36.03;19.37;;;;;;;;;;5031734;28;20411;-49
2021/09/04 01:32:04;;;;;;;35.10;17.87;;;;;;;;;;5031779;28;20434;-48
2021/09/04 01:34:30;;;;;;;28.93;19.30;;;;;;;;;;5031603;28;20406;-49
2021/09/04 01:36:56;;;;;;;36.87;20.67;;;;;;;;;;5031677;28;20479;-48
2021/09/04 01:39:22;;;;;;;29.87;18.27;;;;;;;;;;5031557;28;20380;-51
2021/09/04 01:41:49;;;;;;;33.17;20.10;;;;;;;;;;5031631;28;20414;-50
2021/09/04 01:44:15;;;;;;;36.00;20.67;;;;;;;;;;5031475;28;20401;-48
2021/09/04 01:46:41;;;;;;;34.27;20.90;;;;;;;;;;5031790;28;21017;-50
2021/09/04 01:49:07;;;;;;;39.77;22.10;;;;;;;;;;5031581;28;20381;-49
2021/09/04 01:51:33;;;;;;;45.93;20.37;;;;;;;;;;5031631;28;20520;-50
2021/09/04 01:54:00;;;;;;;35.80;18.93;;;;;;;;;;5031383;28;20553;-51
2021/09/04 01:56:26;;;;;;;36.43;18.80;;;;;;;;;;5031457;28;20438;-48
2021/09/04 01:58:52;;;;;;;34.97;19.00;;;;;;;;;;5031534;28;20407;-51
2021/09/04 02:01:18;;;;;;;39.77;20.17;;;;;;;;;;5031441;28;20441;-48
2021/09/04 02:03:44;;;;;;;40.33;20.47;;;;;;;;;;5031297;28;20885;-51
2021/09/04 02:06:10;;;;;;;35.53;18.87;;;;;;;;;;5031402;28;20775;-51
2021/09/04 02:08:36;;;;;;;35.93;20.90;;;;;;;;;;5031624;28;20834;-50
2021/09/04 02:11:02;;;;;;;35.17;19.73;;;;;;;;;;5031421;28;20479;-51
2021/09/04 02:13:28;;;;;;;37.77;21.47;;;;;;;;;;5031220;28;20491;-49
2021/09/04 02:15:54;;;;;;;36.97;21.83;;;;;;;;;;5031335;28;20406;-50
2021/09/04 02:18:20;;;;;;;39.90;21.83;;;;;;;;;;5033895;28;20393;-50
2021/09/04 02:20:47;;;;;;;42.97;23.13;;;;;;;;;;5034954;28;20445;-50
2021/09/04 02:23:14;;;;;;;47.90;25.30;;;;;;;;;;5034737;28;20381;-48
2021/09/04 02:25:40;;;;;;;44.73;24.93;;;;;;;;;;5035013;28;20390;-49
2021/09/04 02:28:06;;;;;;;48.53;25.73;;;;;;;;;;5034994;28;20452;-48
2021/09/04 02:30:32;;;;;;;42.87;25.10;;;;;;;;;;5034902;28;20805;-50
2021/09/04 02:32:58;;;;;;;48.97;26.80;;;;;;;;;;5034846;28;20369;-51
2021/09/04 02:35:24;;;;;;;47.63;24.53;;;;;;;;;;5034873;28;20398;-50
2021/09/04 02:37:50;;;;;;;50.57;25.00;;;;;;;;;;5034675;28;20424;-49
2021/09/04 02:40:16;;;;;;;52.57;28.37;;;;;;;;;;5034763;28;20756;-50
2021/09/04 02:42:42;;;;;;;51.50;25.97;;;;;;;;;;5034666;28;20402;-50
2021/09/04 02:45:08;;;;;;;41.50;23.87;;;;;;;;;;5034541;28;20369;-50
2021/09/04 02:47:35;;;;;;;51.90;27.33;;;;;;;;;;5034608;28;20894;-50
2021/09/04 02:50:01;;;;;;;57.33;26.47;;;;;;;;;;5034359;28;20842;-48
2021/09/04 02:52:27;;;;;;;47.20;25.80;;;;;;;;;;5034401;28;20381;-51
2021/09/04 02:54:53;;;;;;;50.47;26.47;;;;;;;;;;5034295;28;20430;-50
2021/09/04 02:57:19;;;;;;;57.37;27.93;;;;;;;;;;5034358;28;20428;-50
2021/09/04 02:59:45;;;;;;;49.80;25.33;;;;;;;;;;5034367;28;20505;-50
2021/09/04 03:02:11;;;;;;;50.73;25.47;;;;;;;;;;5034341;28;20823;-50
2021/09/04 03:04:37;;;;;;;49.43;26.90;;;;;;;;;;5034060;28;20398;-50
2021/09/04 03:07:03;;;;;;;57.03;25.80;;;;;;;;;;5034493;28;20399;-50
2021/09/04 03:09:29;;;;;;;54.47;26.67;;;;;;;;;;5034139;28;20487;-50
2021/09/04 03:11:55;;;;;;;52.70;27.50;;;;;;;;;;5034118;28;20403;-50
2021/09/04 03:14:21;;;;;;;50.00;26.90;;;;;;;;;;5033928;28;20889;-49
2021/09/04 03:16:47;;;;;;;49.27;26.93;;;;;;;;;;5034097;28;20936;-50
2021/09/04 03:19:13;;;;;;;49.77;25.03;;;;;;;;;;5034095;28;20402;-50
2021/09/04 03:21:39;;;;;;;49.83;27.00;;;;;;;;;;5033727;28;20448;-50
2021/09/04 03:24:05;;;;;;;49.63;26.07;;;;;;;;;;5033838;28;20381;-50
2021/09/04 03:26:31;;;;;;;52.20;26.90;;;;;;;;;;5033993;28;20402;-51
2021/09/04 03:28:57;;;;;;;48.87;25.50;;;;;;;;;;5034023;28;20780;-46
2021/09/04 03:31:23;;;;;;;48.57;27.27;;;;;;;;;;5033741;28;20808;-46
2021/09/04 03:33:49;;;;;;;44.20;24.90;;;;;;;;;;5033555;28;20416;-46
2021/09/04 03:36:15;;;;;;;52.33;25.57;;;;;;;;;;5033635;28;20473;-45
2021/09/04 03:38:40;;;;;;;48.57;26.87;;;;;;;;;;5033638;28;20452;-47
2021/09/04 03:41:06;;;;;;;45.10;26.07;;;;;;;;;;5033573;28;20866;-48
2021/09/04 03:43:35;;;;;;;52.60;26.50;;;;;;;;;;5033472;28;20500;-46
2021/09/04 03:46:00;;;;;;;54.20;26.13;;;;;;;;;;5033442;28;20410;-47
2021/09/04 03:48:26;;;;;;;54.53;26.40;;;;;;;;;;5033435;28;20493;-45
2021/09/04 03:50:52;;;;;;;52.10;27.27;;;;;;;;;;5033226;28;20426;-45
2021/09/04 03:53:18;;;;;;;52.83;26.67;;;;;;;;;;5033193;28;20407;-45
2021/09/04 03:55:44;;;;;;;49.93;27.40;;;;;;;;;;5033338;28;20420;-45
2021/09/04 03:58:10;;;;;;;56.90;25.07;;;;;;;;;;5033477;28;20393;-46
2021/09/04 04:00:36;;;;;;;46.67;27.37;;;;;;;;;;5033177;28;20506;-46
2021/09/04 04:03:02;;;;;;;57.83;27.47;;;;;;;;;;5033044;28;20406;-47
2021/09/04 04:05:28;;;;;;;58.43;27.17;;;;;;;;;;5032961;28;20414;-48
2021/09/04 04:07:54;;;;;;;52.60;27.20;;;;;;;;;;5033102;28;20410;-48
2021/09/04 04:10:20;;;;;;;51.13;25.53;;;;;;;;;;5032954;28;20502;-45
2021/09/04 04:12:46;;;;;;;46.43;26.03;;;;;;;;;;5032979;28;20405;-45
2021/09/04 04:15:12;;;;;;;53.93;27.60;;;;;;;;;;5032713;28;20369;-45
2021/09/04 04:17:38;;;;;;;50.00;27.53;;;;;;;;;;5032789;28;20432;-45
2021/09/04 04:20:05;;;;;;;51.10;27.50;;;;;;;;;;5032716;28;20412;-45
2021/09/04 04:22:31;;;;;;;66.00;29.10;;;;;;;;;;5032692;28;20475;-44
2021/09/04 04:24:57;;;;;;;50.57;26.40;;;;;;;;;;5032609;28;20394;-44
2021/09/04 04:27:23;;;;;;;62.97;27.43;;;;;;;;;;5032822;28;20413;-45
2021/09/04 04:29:48;;;;;;;53.70;27.77;;;;;;;;;;5033110;28;20422;-45
2021/09/04 04:32:14;;;;;;;55.43;27.97;;;;;;;;;;5032540;28;20894;-46
2021/09/04 04:34:40;;;;;;;49.43;25.50;;;;;;;;;;5032361;28;20427;-46
2021/09/04 04:37:06;;;;;;;53.57;27.93;;;;;;;;;;5032541;28;20440;-45
2021/09/04 04:39:32;;;;;;;59.43;29.13;;;;;;;;;;5031831;28;20389;-45
2021/09/04 04:41:58;;;;;;;57.30;28.00;;;;;;;;;;5032136;28;20455;-48
2021/09/04 04:44:24;;;;;;;64.93;27.90;;;;;;;;;;5032182;28;20398;-46
2021/09/04 04:46:50;;;;;;;49.23;25.43;;;;;;;;;;5032349;28;20385;-45
2021/09/04 04:49:16;;;;;;;60.10;25.93;;;;;;;;;;5032214;28;20381;-45
2021/09/04 04:51:42;;;;;;;51.60;27.53;;;;;;;;;;5032286;28;20435;-45
2021/09/04 04:54:08;;;;;;;51.77;27.00;;;;;;;;;;5032079;28;20406;-44
2021/09/04 04:56:34;;;;;;;51.87;25.73;;;;;;;;;;5032142;28;20470;-46
2021/09/04 04:59:00;;;;;;;56.53;26.60;;;;;;;;;;5032085;28;20417;-45
2021/09/04 05:01:26;;;;;;;51.40;24.63;;;;;;;;;;5031998;28;20433;-46
2021/09/04 05:03:52;;;;;;;60.27;27.23;;;;;;;;;;5031891;28;20384;-46
2021/09/04 05:06:18;;;;;;;49.10;24.50;;;;;;;;;;5032146;28;20386;-48
2021/09/04 05:08:44;;;;;;;48.23;25.50;;;;;;;;;;5032096;28;20795;-45
2021/09/04 05:11:10;;;;;;;50.40;26.40;;;;;;;;;;5031867;28;20430;-45
2021/09/04 05:13:36;;;;;;;60.07;27.80;;;;;;;;;;5031783;28;20377;-45
2021/09/04 05:16:02;;;;;;;53.60;27.13;;;;;;;;;;5031822;28;20438;-45
2021/09/04 05:18:28;;;;;;;48.37;23.40;;;;;;;;;;5031953;28;20375;-44
2021/09/04 05:20:54;;;;;;;49.87;25.27;;;;;;;;;;5031809;28;20921;-45
2021/09/04 05:23:20;;;;;;;59.37;25.10;;;;;;;;;;5031834;28;20388;-46
2021/09/04 05:25:46;;;;;;;54.70;25.50;;;;;;;;;;5031862;28;20855;-46
2021/09/04 05:28:12;;;;;;;52.80;26.27;;;;;;;;;;5031715;28;20421;-45
2021/09/04 05:30:38;;;;;;;48.80;25.87;;;;;;;;;;5031648;28;20450;-47
2021/09/04 05:33:04;;;;;;;52.27;26.60;;;;;;;;;;5031673;28;20406;-48
2021/09/04 05:35:30;;;;;;;48.83;26.40;;;;;;;;;;5031585;28;20405;-46
2021/09/04 05:37:55;;;;;;;54.50;25.00;;;;;;;;;;5031677;28;20468;-45
2021/09/04 05:40:21;;;;;;;79.77;28.30;;;;;;;;;;5031641;28;20422;-45
2021/09/04 05:42:47;;;;;;;56.63;27.00;;;;;;;;;;5031590;28;20377;-45
2021/09/04 05:45:13;;;;;;;52.67;26.07;;;;;;;;;;5031438;28;20819;-45
2021/09/04 05:47:39;;;;;;;52.73;26.47;;;;;;;;;;5031650;28;20381;-46
2021/09/04 05:50:06;;;;;;;56.63;27.63;;;;;;;;;;5031484;28;20404;-46
2021/09/04 05:52:32;;;;;;;72.47;29.10;;;;;;;;;;5034525;28;20408;-45
2021/09/04 05:54:57;;;;;;;47.40;24.77;;;;;;;;;;5035429;28;20384;-46
2021/09/04 05:57:23;;;;;;;52.83;26.60;;;;;;;;;;5035483;28;20457;-47
2021/09/04 05:59:50;;;;;;;54.70;25.00;;;;;;;;;;5035431;28;20507;-48
2021/09/04 06:02:16;;;;;;;47.90;22.40;;;;;;;;;;5035333;28;20452;-47
2021/09/04 06:04:42;;;;;;;43.70;22.40;;;;;;;;;;5035173;28;20413;-46
2021/09/04 06:07:08;;;;;;;44.73;22.33;;;;;;;;;;5035356;28;20766;-48
2021/09/04 06:09:34;;;;;;;41.60;22.47;;;;;;;;;;5035267;28;20428;-45
2021/09/04 06:12:00;;;;;;;43.80;22.73;;;;;;;;;;5035206;28;20909;-47
2021/09/04 06:14:26;;;;;;;46.37;22.87;;;;;;;;;;5035087;28;20415;-45
2021/09/04 06:16:52;;;;;;;61.13;22.87;;;;;;;;;;5035087;28;20430;-45
2021/09/04 06:19:18;;;;;;;46.20;24.20;;;;;;;;;;5035074;28;20415;-45
2021/09/04 06:21:44;;;;;;;48.67;23.50;;;;;;;;;;5035032;28;20380;-46
2021/09/04 06:24:09;;;;;;;42.50;22.07;;;;;;;;;;5034872;28;20783;-46
2021/09/04 06:26:35;;;;;;;44.53;22.57;;;;;;;;;;5034943;28;20411;-46
2021/09/04 06:29:01;;;;;;;42.07;23.10;;;;;;;;;;5035117;28;20372;-48
2021/09/04 06:31:27;;;;;;;59.80;24.80;;;;;;;;;;5034842;28;20963;-45
2021/09/04 06:33:53;;;;;;;43.10;21.97;;;;;;;;;;5034776;28;20890;-46
2021/09/04 06:36:19;;;;;;;42.97;22.67;;;;;;;;;;5034852;28;20836;-45
2021/09/04 06:38:45;;;;;;;38.30;21.47;;;;;;;;;;5034821;28;20909;-45
2021/09/04 06:41:11;;;;;;;43.33;21.40;;;;;;;;;;5034541;28;20780;-45
2021/09/04 06:43:37;;;;;;;44.97;21.77;;;;;;;;;;5034774;28;20398;-46
2021/09/04 06:46:03;;;;;;;42.83;22.03;;;;;;;;;;5034631;28;20452;-46
2021/09/04 06:48:29;;;;;;;39.53;20.60;;;;;;;;;;5034713;28;20854;-45
2021/09/04 06:50:55;;;;;;;43.13;21.60;;;;;;;;;;5034420;28;20526;-46
2021/09/04 06:53:21;;;;;;;36.00;19.97;;;;;;;;;;5034528;28;20384;-45
2021/09/04 06:55:47;;;;;;;44.87;18.97;;;;;;;;;;5034234;28;20407;-46
2021/09/04 06:58:13;;;;;;;42.67;20.70;;;;;;;;;;5034377;28;20461;-48
2021/09/04 07:00:39;;;;;;;41.53;20.40;;;;;;;;;;5034505;28;20999;-45
2021/09/04 07:03:06;;;;;;;39.53;21.13;;;;;;;;;;5033532;28;20381;-45
2021/09/04 07:05:32;;;;;;;39.67;21.83;;;;;;;;;;5034179;28;20459;-47
2021/09/04 07:07:58;;;;;;;47.10;22.93;;;;;;;;;;5034234;28;20387;-44
2021/09/04 07:10:24;;;;;;;54.57;21.20;;;;;;;;;;5033967;28;20436;-45
2021/09/04 07:12:50;;;;;;;42.27;20.10;;;;;;;;;;5034168;28;20411;-45
2021/09/04 07:15:16;;;;;;;42.57;20.43;;;;;;;;;;5033946;28;20497;-45
2021/09/04 07:17:42;;;;;;;39.97;20.47;;;;;;;;;;5034043;28;20430;-44
2021/09/04 07:20:08;;;;;;;39.37;21.00;;;;;;;;;;5033985;28;20775;-44
2021/09/04 07:22:34;;;;;;;45.13;21.23;;;;;;;;;;5033905;28;20401;-45
2021/09/04 07:25:00;;;;;;;47.77;21.67;;;;;;;;;;5033665;28;20377;-45
2021/09/04 07:27:26;;;;;;;43.10;20.03;;;;;;;;;;5033949;28;20493;-45
2021/09/04 07:29:52;;;;;;;44.77;20.40;;;;;;;;;;5034121;28;20429;-45
2021/09/04 07:32:18;;;;;;;38.23;21.17;;;;;;;;;;5033882;28;20416;-46
2021/09/04 07:34:44;;;;;;;37.80;19.93;;;;;;;;;;5033610;28;20410;-46
2021/09/04 07:37:10;;;;;;;42.70;21.00;;;;;;;;;;5033598;28;20453;-47
2021/09/04 07:39:36;;;;;;;39.87;22.03;;;;;;;;;;5033482;28;20452;-45
2021/09/04 07:42:02;;;;;;;37.43;20.50;;;;;;;;;;5033587;28;20477;-45
2021/09/04 07:44:28;;;;;;;44.13;20.30;;;;;;;;;;5033359;28;20405;-45
2021/09/04 07:46:54;;;;;;;41.37;19.47;;;;;;;;;;5033553;28;20406;-45
2021/09/04 07:49:19;;;;;;;37.07;19.97;;;;;;;;;;5033438;28;20783;-44
2021/09/04 07:51:45;;;;;;;38.67;19.60;;;;;;;;;;5033419;28;20402;-45
2021/09/04 07:54:11;;;;;;;43.20;20.50;;;;;;;;;;5033180;28;20413;-46
2021/09/04 07:56:37;;;;;;;50.33;23.00;;;;;;;;;;5033304;28;20461;-45
2021/09/04 07:59:03;;;;;;;40.60;21.70;;;;;;;;;;5033280;28;20396;-47
2021/09/04 08:01:29;;;;;;;52.00;24.50;;;;;;;;;;5033132;28;20984;-49
2021/09/04 08:03:55;;;;;;;37.13;18.10;;;;;;;;;;5033040;28;20401;-46
2021/09/04 08:06:21;;;;;;;37.80;18.17;;;;;;;;;;5033162;28;20489;-45
2021/09/04 08:08:47;;;;;;;36.17;19.97;;;;;;;;;;5033023;28;20406;-45
2021/09/04 08:11:15;;;;;;;39.63;19.10;;;;;;;;;;5033050;28;20401;-46
2021/09/04 08:13:41;;;;;;;35.80;19.07;;;;;;;;;;5032777;28;20731;-46
2021/09/04 08:16:07;;;;;;;35.00;19.27;;;;;;;;;;5032777;28;20387;-46
2021/09/04 08:18:32;;;;;;;35.80;18.83;;;;;;;;;;5032984;28;20487;-46
2021/09/04 08:20:58;;;;;;;29.70;17.90;;;;;;;;;;5032744;28;20785;-48
2021/09/04 08:23:24;;;;;;;28.43;17.07;;;;;;;;;;5032612;28;20529;-45
2021/09/04 08:25:50;;;;;;;28.93;18.20;;;;;;;;;;5032584;28;20453;-45
2021/09/04 08:28:16;;;;;;;33.83;18.30;;;;;;;;;;5032694;28;20381;-45
2021/09/04 08:30:42;;;;;;;35.17;17.73;;;;;;;;;;5032585;28;20404;-45
2021/09/04 08:33:08;;;;;;;33.03;17.60;;;;;;;;;;5032636;28;20381;-46
2021/09/04 08:35:34;;;;;;;36.13;18.93;;;;;;;;;;5032467;28;20377;-45
2021/09/04 08:38:06;;;;;;;37.60;18.77;;;;;;;;;;5032434;28;20449;-44
2021/09/04 08:40:32;;;;;;;35.10;18.97;;;;;;;;;;5032475;28;20400;-49
2021/09/04 08:42:59;;;;;;;37.13;19.20;;;;;;;;;;5032439;28;20401;-45
2021/09/04 08:45:26;;;;;;;38.03;18.33;;;;;;;;;;5032240;28;20374;-46
2021/09/04 08:47:53;;;;;;;32.17;16.77;;;;;;;;;;5032489;28;20413;-45
2021/09/04 08:50:19;;;;;;;35.53;18.53;;;;;;;;;;5032194;28;20399;-46
2021/09/04 08:52:46;;;;;;;33.03;17.57;;;;;;;;;;5032319;28;20406;-45
2021/09/04 08:55:12;;;;;;;32.37;17.83;;;;;;;;;;5032154;28;20438;-46
2021/09/04 08:57:37;;;;;;;49.13;25.63;;;;;;;;;;5033620;28;20530;-46
2021/09/04 09:00:04;;;;;;;33.43;18.83;;;;;;;;;;5035259;28;20422;-45
2021/09/04 09:02:30;;;;;;;29.90;17.30;;;;;;;;;;5031461;28;20451;-44
2021/09/04 09:05:06;;;;;;;33.63;17.03;;;;;;;;;;5030534;28;20409;-46
2021/09/04 09:07:42;;;;;;;29.33;16.47;;;;;;;;;;5032278;28;20815;-45
2021/09/04 09:10:29;;;;;;;32.60;18.50;;;;;;;;;;5031876;28;20407;-45
2021/09/04 09:12:55;;;;;;;28.90;18.73;;;;;;;;;;5031820;28;20388;-45
2021/09/04 09:15:22;;;;;;;32.90;17.27;;;;;;;;;;5031693;28;20381;-46
2021/09/04 09:18:07;;;;;;;32.27;17.73;;;;;;;;;;5031790;28;20965;-45
2021/09/04 09:20:33;;;;;;;31.57;17.07;;;;;;;;;;5031932;28;20409;-47
2021/09/04 09:23:04;;;;;;;33.13;16.70;;;;;;;;;;5030718;28;20393;-46
2021/09/04 09:25:31;;;;;;;32.00;17.73;;;;;;;;;;5031533;28;20485;-46
2021/09/04 09:28:01;;;;;;;29.70;19.03;;;;;;;;;;5031367;28;20841;-45
2021/09/04 09:30:31;;;;;;;34.23;17.93;;;;;;;;;;5031611;28;20392;-48
2021/09/04 09:32:57;;;;;;;28.40;16.53;;;;;;;;;;5031656;28;20415;-45
2021/09/04 09:35:35;;;;;;;25.13;15.33;;;;;;;;;;5032596;28;20875;-50
2021/09/04 09:38:02;;;;;;;25.47;17.47;;;;;;;;;;5031591;28;20820;-50
2021/09/04 09:40:29;;;;;;;30.67;16.70;;;;;;;;;;5031378;28;20397;-48
2021/09/04 09:42:55;;;;;;;26.53;17.13;;;;;;;;;;5031436;28;20373;-51
2021/09/04 09:45:37;;;;;;;27.40;16.80;;;;;;;;;;5031357;28;20831;-48
2021/09/04 09:48:04;;;;;;;26.77;17.70;;;;;;;;;;5031998;28;20461;-50
2021/09/04 09:50:31;;;;;;;30.63;17.60;;;;;;;;;;5031605;28;20429;-49
2021/09/04 09:52:57;;;;;;;28.27;16.33;;;;;;;;;;5031485;28;20409;-48
2021/09/04 09:55:24;;;;;;;31.40;17.03;;;;;;;;;;5031309;28;20373;-50
2021/09/04 09:57:50;;;;;;;29.40;16.90;;;;;;;;;;5031379;28;20432;-49
2021/09/04 10:00:17;;;;;;;31.40;17.80;;;;;;;;;;5031546;28;20477;-50
2021/09/04 10:02:44;;;;;;;28.50;15.93;;;;;;;;;;5031481;28;20404;-50
2021/09/04 10:05:10;;;;;;;22.67;14.60;;;;;;;;;;5031338;28;20393;-49
2021/09/04 10:07:36;;;;;;;26.20;16.30;;;;;;;;;;5031449;28;20388;-50
2021/09/04 10:10:03;;;;;;;31.47;17.00;;;;;;;;;;5031408;28;20398;-50
2021/09/04 10:12:29;;;;;;;25.00;15.07;;;;;;;;;;5031317;28;20447;-51
2021/09/04 10:14:55;;;;;;;24.10;15.43;;;;;;;;;;5031293;28;20478;-50
2021/09/04 10:17:21;;;;;;;23.87;15.10;;;;;;;;;;5031319;28;20942;-49
2021/09/04 10:19:49;;;;;;;24.37;15.43;;;;;;;;;;5030199;28;20397;-51
2021/09/04 10:22:15;;;;;;;26.83;15.40;;;;;;;;;;5031063;28;20849;-51
2021/09/04 10:24:51;;;;;;;28.10;15.77;;;;;;;;;;5013597;28;20414;-50
2021/09/04 10:27:31;;;;;;;27.80;16.40;;;;;;;;;;5031228;28;20378;-50
2021/09/04 10:29:57;;;;;;;33.33;17.80;;;;;;;;;;5031131;28;20433;-50
2021/09/04 10:32:23;;;;;;;33.00;18.17;;;;;;;;;;5031079;28;20415;-51
2021/09/04 10:35:02;;;;;;;30.83;17.20;;;;;;;;;;5031003;28;20503;-51
2021/09/04 10:37:28;;;;;;;31.67;16.23;;;;;;;;;;5031120;28;20425;-50
2021/09/04 10:40:02;;;;;;;29.80;16.53;;;;;;;;;;5034393;28;20421;-49
2021/09/04 10:42:29;;;;;;;29.77;17.07;;;;;;;;;;5034651;28;20392;-48
2021/09/04 10:45:15;;;;;;;31.93;18.27;;;;;;;;;;5034429;28;20431;-49
2021/09/04 10:47:42;;;;;;;33.40;17.63;;;;;;;;;;5034441;28;20910;-50
2021/09/04 10:50:27;;;;;;;28.73;16.77;;;;;;;;;;5034516;28;20808;-50
2021/09/04 10:52:53;;;;;;;30.00;16.80;;;;;;;;;;5034411;28;20895;-49
2021/09/04 10:55:19;;;;;;;33.07;18.40;;;;;;;;;;5034071;28;20508;-50
2021/09/04 10:57:49;;;;;;;30.87;17.87;;;;;;;;;;5034424;28;20467;-49
2021/09/04 11:00:25;;;;;;;30.20;18.40;;;;;;;;;;5034301;28;20933;-50
2021/09/04 11:02:55;;;;;;;31.40;19.00;;;;;;;;;;5034295;28;20770;-50
2021/09/04 11:05:24;;;;;;;34.13;19.17;;;;;;;;;;5034159;28;20503;-50
2021/09/04 11:08:00;;;;;;;32.63;17.77;;;;;;;;;;5034091;28;20412;-50
2021/09/04 11:10:26;;;;;;;32.57;18.73;;;;;;;;;;5034088;28;20388;-49
2021/09/04 11:13:10;;;;;;;32.80;19.40;;;;;;;;;;5034179;28;20390;-50
2021/09/04 11:15:36;;;;;;;32.20;17.90;;;;;;;;;;5033892;28;20625;-50
2021/09/04 11:18:02;;;;;;;32.87;17.80;;;;;;;;;;5034071;28;20525;-50
2021/09/04 11:20:29;;;;;;;36.90;17.90;;;;;;;;;;5033800;28;20395;-50
2021/09/04 11:22:55;;;;;;;35.00;19.43;;;;;;;;;;5033830;28;20420;-50
2021/09/04 11:25:21;;;;;;;31.00;18.17;;;;;;;;;;5033686;28;20500;-51
2021/09/04 11:27:47;;;;;;;35.87;19.57;;;;;;;;;;5033866;28;20795;-50
2021/09/04 11:30:20;;;;;;;33.23;17.87;;;;;;;;;;5033907;28;20454;-51
2021/09/04 11:32:47;;;;;;;36.13;19.17;;;;;;;;;;5033638;28;20414;-50
2021/09/04 11:35:13;;;;;;;33.63;19.47;;;;;;;;;;5033612;28;20379;-50
2021/09/04 11:37:43;;;;;;;35.13;18.27;;;;;;;;;;5033401;28;20453;-49
2021/09/04 11:40:10;;;;;;;41.40;21.53;;;;;;;;;;5033697;28;20427;-49
2021/09/04 11:42:37;;;;;;;38.53;19.10;;;;;;;;;;5033531;28;20419;-50
2021/09/04 11:45:04;;;;;;;34.93;19.50;;;;;;;;;;5033385;28;20459;-49
2021/09/04 11:47:30;;;;;;;32.73;19.00;;;;;;;;;;5033343;28;20437;-51
2021/09/04 11:49:56;;;;;;;34.80;19.47;;;;;;;;;;5032986;28;20911;-50
2021/09/04 11:52:30;;;;;;;33.10;19.00;;;;;;;;;;5034600;28;20418;-52
2021/09/04 11:55:06;;;;;;;33.43;18.60;;;;;;;;;;5025472;28;20437;-49
2021/09/04 11:57:33;;;;;;;37.73;20.77;;;;;;;;;;5033091;28;20441;-50
2021/09/04 12:00:04;;;;;;;33.27;19.50;;;;;;;;;;5032424;28;20396;-50
2021/09/04 12:02:30;;;;;;;32.90;19.53;;;;;;;;;;5032050;28;20779;-50
2021/09/04 12:05:02;;;;;;;34.40;19.90;;;;;;;;;;5031808;28;20364;-49
2021/09/04 12:07:28;;;;;;;31.13;18.60;;;;;;;;;;5032084;28;20418;-51
2021/09/04 12:09:55;;;;;;;37.40;20.20;;;;;;;;;;5031933;28;20465;-51
2021/09/04 12:12:24;;;;;;;36.93;19.97;;;;;;;;;;5031861;28;20878;-50
2021/09/04 12:14:50;;;;;;;33.87;20.77;;;;;;;;;;5032093;28;20388;-50
2021/09/04 12:17:19;;;;;;;35.07;19.03;;;;;;;;;;5032813;28;20512;-49
2021/09/04 12:19:45;;;;;;;39.43;21.20;;;;;;;;;;5032735;28;20403;-50
2021/09/04 12:22:11;;;;;;;40.70;19.73;;;;;;;;;;5032899;28;20422;-50
2021/09/04 12:24:37;;;;;;;35.20;21.10;;;;;;;;;;5032362;28;20461;-50
2021/09/04 12:27:03;;;;;;;32.87;19.33;;;;;;;;;;5032442;28;20405;-51
2021/09/04 12:29:30;;;;;;;30.87;19.53;;;;;;;;;;5032549;28;20919;-51
2021/09/04 12:32:12;;;;;;;32.60;20.67;;;;;;;;;;5032658;28;20505;-50
2021/09/04 12:34:39;;;;;;;34.40;19.57;;;;;;;;;;5032418;28;20402;-50
2021/09/04 12:37:24;;;;;;;35.00;19.07;;;;;;;;;;5032469;28;20504;-48
2021/09/04 12:39:50;;;;;;;37.23;20.00;;;;;;;;;;5032204;28;20411;-50
2021/09/04 12:42:15;;;;;;;37.30;21.37;;;;;;;;;;5032406;28;20373;-51
2021/09/04 12:44:43;;;;;;;32.73;19.93;;;;;;;;;;5032093;28;20405;-48
2021/09/04 12:47:09;;;;;;;36.10;20.53;;;;;;;;;;5032329;28;20398;-49
2021/09/04 12:49:37;;;;;;;34.40;20.50;;;;;;;;;;5032733;28;20425;-50
2021/09/04 12:52:06;;;;;;;36.73;21.13;;;;;;;;;;5032249;28;20402;-49
2021/09/04 12:54:36;;;;;;;33.63;20.10;;;;;;;;;;5031900;28;20924;-50
2021/09/04 12:57:03;;;;;;;32.67;20.20;;;;;;;;;;5032276;28;20468;-50
2021/09/04 12:59:29;;;;;;;31.70;20.37;;;;;;;;;;5032239;28;20901;-49
2021/09/04 13:01:55;;;;;;;32.40;20.67;;;;;;;;;;5031398;28;20485;-50
2021/09/04 13:04:21;;;;;;;29.87;18.37;;;;;;;;;;5031880;28;20423;-48
2021/09/04 13:06:47;;;;;;;29.80;19.23;;;;;;;;;;5031961;28;20704;-50
2021/09/04 13:09:13;;;;;;;30.03;19.77;;;;;;;;;;5032057;28;20410;-51
2021/09/04 13:11:39;;;;;;;29.70;19.40;;;;;;;;;;5031941;28;20373;-51
2021/09/04 13:14:05;;;;;;;35.20;20.60;;;;;;;;;;5032067;28;20896;-49
2021/09/04 13:16:31;;;;;;;32.27;20.40;;;;;;;;;;5031722;28;20472;-50
2021/09/04 13:18:56;;;;;;;31.53;21.10;;;;;;;;;;5031954;28;20745;-50
2021/09/04 13:21:23;;;;;;;30.97;20.00;;;;;;;;;;5031620;28;20839;-50
2021/09/04 13:23:49;;;;;;;33.03;21.13;;;;;;;;;;5031705;28;20425;-51
2021/09/04 13:26:15;;;;;;;32.03;19.80;;;;;;;;;;5031873;28;20406;-51
2021/09/04 13:28:41;;;;;;;34.00;20.27;;;;;;;;;;5031858;28;20739;-50
2021/09/04 13:31:07;;;;;;;34.03;21.07;;;;;;;;;;5031663;28;20424;-49
2021/09/04 13:33:33;;;;;;;34.37;19.50;;;;;;;;;;5031753;28;20396;-48
2021/09/04 13:35:59;;;;;;;33.17;19.50;;;;;;;;;;5031985;28;20378;-50
2021/09/04 13:38:25;;;;;;;36.30;20.97;;;;;;;;;;5031577;28;20464;-51
2021/09/04 13:40:51;;;;;;;38.93;19.60;;;;;;;;;;5031663;28;20420;-50
2021/09/04 13:43:17;;;;;;;36.70;20.20;;;;;;;;;;5031708;28;20485;-50
2021/09/04 13:45:43;;;;;;;32.80;19.90;;;;;;;;;;5031527;28;20415;-50
2021/09/04 13:48:09;;;;;;;28.27;20.07;;;;;;;;;;5031518;28;20409;-49
2021/09/04 13:50:35;;;;;;;31.30;20.47;;;;;;;;;;5031505;28;20520;-49
2021/09/04 13:53:01;;;;;;;31.47;20.27;;;;;;;;;;5031598;28;20479;-50
2021/09/04 13:55:27;;;;;;;26.60;20.83;;;;;;;;;;5031418;28;20413;-51
2021/09/04 13:57:53;;;;;;;32.70;20.60;;;;;;;;;;5031487;28;20453;-50
2021/09/04 14:00:19;;;;;;;29.50;20.07;;;;;;;;;;5031490;28;20458;-50
2021/09/04 14:02:45;;;;;;;28.67;20.00;;;;;;;;;;5031450;28;20662;-50
2021/09/04 14:05:11;;;;;;;31.27;20.73;;;;;;;;;;5031243;28;20964;-51
2021/09/04 14:07:37;;;;;;;31.20;19.23;;;;;;;;;;5031442;28;20413;-51
2021/09/04 14:10:03;;;;;;;27.03;18.77;;;;;;;;;;5031281;28;20423;-50
2021/09/04 14:12:29;;;;;;;24.93;18.83;;;;;;;;;;5032564;28;20870;-50
2021/09/04 14:14:55;;;;;;;27.40;20.33;;;;;;;;;;5035047;28;20927;-50